sensor_id;sensor_type;location;lat;lon;timestamp;temperature;humidity
80367;DHT22;70058;42.660;23.366;2024-03-25T00:02:09;6.80;76.50
80367;DHT22;70058;42.660;23.366;2024-03-25T00:04:35;6.80;76.80
80367;DHT22;70058;42.660;23.366;2024-03-25T00:07:01;6.60;75.70
80367;DHT22;70058;42.660;23.366;2024-03-25T00:09:27;6.70;76.40
80367;DHT22;70058;42.660;23.366;2024-03-25T00:11:53;6.60;75.50
80367;DHT22;70058;42.660;23.366;2024-03-25T00:14:23;6.50;75.10
80367;DHT22;70058;42.660;23.366;2024-03-25T00:16:49;6.60;75.00
80367;DHT22;70058;42.660;23.366;2024-03-25T00:19:15;6.60;73.50
80367;DHT22;70058;42.660;23.366;2024-03-25T00:21:42;6.60;74.20
80367;DHT22;70058;42.660;23.366;2024-03-25T00:24:08;6.70;74.70
80367;DHT22;70058;42.660;23.366;2024-03-25T00:26:34;6.60;73.20
80367;DHT22;70058;42.660;23.366;2024-03-25T00:28:59;6.60;73.70
80367;DHT22;70058;42.660;23.366;2024-03-25T00:31:25;6.50;73.20
80367;DHT22;70058;42.660;23.366;2024-03-25T00:33:50;6.50;73.10
80367;DHT22;70058;42.660;23.366;2024-03-25T00:36:16;6.50;73.20
80367;DHT22;70058;42.660;23.366;2024-03-25T00:38:42;6.60;73.50
80367;DHT22;70058;42.660;23.366;2024-03-25T00:41:08;6.80;72.90
80367;DHT22;70058;42.660;23.366;2024-03-25T00:43:34;6.90;72.10
80367;DHT22;70058;42.660;23.366;2024-03-25T00:46:00;7.10;71.20
80367;DHT22;70058;42.660;23.366;2024-03-25T00:48:26;7.10;68.80
80367;DHT22;70058;42.660;23.366;2024-03-25T00:50:51;7.20;69.50
80367;DHT22;70058;42.660;23.366;2024-03-25T00:53:17;7.30;69.50
80367;DHT22;70058;42.660;23.366;2024-03-25T00:55:44;7.40;68.80
80367;DHT22;70058;42.660;23.366;2024-03-25T00:58:10;7.50;68.90
80367;DHT22;70058;42.660;23.366;2024-03-25T01:00:36;7.50;67.40
80367;DHT22;70058;42.660;23.366;2024-03-25T01:03:01;7.30;66.50
80367;DHT22;70058;42.660;23.366;2024-03-25T01:05:27;7.30;66.80
80367;DHT22;70058;42.660;23.366;2024-03-25T01:07:53;7.10;66.80
80367;DHT22;70058;42.660;23.366;2024-03-25T01:10:19;7.20;67.60
80367;DHT22;70058;42.660;23.366;2024-03-25T01:12:44;7.30;67.20
80367;DHT22;70058;42.660;23.366;2024-03-25T01:15:10;7.60;68.10
80367;DHT22;70058;42.660;23.366;2024-03-25T01:17:37;7.70;66.90
80367;DHT22;70058;42.660;23.366;2024-03-25T01:20:03;7.70;66.70
80367;DHT22;70058;42.660;23.366;2024-03-25T01:22:30;7.70;66.20
80367;DHT22;70058;42.660;23.366;2024-03-25T01:24:56;8.00;66.70
80367;DHT22;70058;42.660;23.366;2024-03-25T01:27:22;8.10;65.90
80367;DHT22;70058;42.660;23.366;2024-03-25T01:29:48;8.20;64.90
80367;DHT22;70058;42.660;23.366;2024-03-25T01:32:13;8.20;65.00
80367;DHT22;70058;42.660;23.366;2024-03-25T01:34:39;8.20;64.10
80367;DHT22;70058;42.660;23.366;2024-03-25T01:37:05;8.30;63.90
80367;DHT22;70058;42.660;23.366;2024-03-25T01:39:31;8.50;64.30
80367;DHT22;70058;42.660;23.366;2024-03-25T01:41:56;8.50;62.60
80367;DHT22;70058;42.660;23.366;2024-03-25T01:44:22;8.40;62.70
80367;DHT22;70058;42.660;23.366;2024-03-25T01:46:48;8.40;62.50
80367;DHT22;70058;42.660;23.366;2024-03-25T01:49:14;8.60;62.90
80367;DHT22;70058;42.660;23.366;2024-03-25T01:51:40;8.50;62.30
80367;DHT22;70058;42.660;23.366;2024-03-25T01:54:07;8.60;63.00
80367;DHT22;70058;42.660;23.366;2024-03-25T01:56:33;8.40;62.70
80367;DHT22;70058;42.660;23.366;2024-03-25T01:59:01;8.30;62.60
80367;DHT22;70058;42.660;23.366;2024-03-25T02:01:27;8.30;63.60
80367;DHT22;70058;42.660;23.366;2024-03-25T02:03:54;7.90;63.10
80367;DHT22;70058;42.660;23.366;2024-03-25T02:06:21;7.90;63.20
80367;DHT22;70058;42.660;23.366;2024-03-25T02:08:48;8.10;63.10
80367;DHT22;70058;42.660;23.366;2024-03-25T02:11:15;8.20;62.70
80367;DHT22;70058;42.660;23.366;2024-03-25T02:13:41;8.30;62.20
80367;DHT22;70058;42.660;23.366;2024-03-25T02:16:07;8.30;62.00
80367;DHT22;70058;42.660;23.366;2024-03-25T02:18:33;8.20;60.90
80367;DHT22;70058;42.660;23.366;2024-03-25T02:20:59;7.90;62.00
80367;DHT22;70058;42.660;23.366;2024-03-25T02:23:26;7.80;61.30
80367;DHT22;70058;42.660;23.366;2024-03-25T02:25:55;7.80;61.10
80367;DHT22;70058;42.660;23.366;2024-03-25T02:28:21;8.00;61.80
80367;DHT22;70058;42.660;23.366;2024-03-25T02:30:47;7.80;61.40
80367;DHT22;70058;42.660;23.366;2024-03-25T02:33:13;7.80;60.70
80367;DHT22;70058;42.660;23.366;2024-03-25T02:35:40;7.70;61.60
80367;DHT22;70058;42.660;23.366;2024-03-25T02:38:07;7.70;61.00
80367;DHT22;70058;42.660;23.366;2024-03-25T02:40:34;7.60;62.30
80367;DHT22;70058;42.660;23.366;2024-03-25T02:43:00;7.60;62.10
80367;DHT22;70058;42.660;23.366;2024-03-25T02:45:25;7.60;62.60
80367;DHT22;70058;42.660;23.366;2024-03-25T02:47:52;7.60;62.10
80367;DHT22;70058;42.660;23.366;2024-03-25T02:50:17;7.50;63.30
80367;DHT22;70058;42.660;23.366;2024-03-25T02:52:43;7.60;63.90
80367;DHT22;70058;42.660;23.366;2024-03-25T02:55:09;7.60;62.80
80367;DHT22;70058;42.660;23.366;2024-03-25T02:57:34;7.80;62.20
80367;DHT22;70058;42.660;23.366;2024-03-25T03:00:00;8.00;61.60
80367;DHT22;70058;42.660;23.366;2024-03-25T03:02:26;8.00;60.40
80367;DHT22;70058;42.660;23.366;2024-03-25T03:04:51;8.00;60.30
80367;DHT22;70058;42.660;23.366;2024-03-25T03:07:17;7.80;60.10
80367;DHT22;70058;42.660;23.366;2024-03-25T03:09:43;7.90;60.60
80367;DHT22;70058;42.660;23.366;2024-03-25T03:12:08;7.80;60.10
80367;DHT22;70058;42.660;23.366;2024-03-25T03:14:34;8.00;60.00
80367;DHT22;70058;42.660;23.366;2024-03-25T03:17:00;8.00;59.60
80367;DHT22;70058;42.660;23.366;2024-03-25T03:19:30;8.00;60.00
80367;DHT22;70058;42.660;23.366;2024-03-25T03:21:56;7.70;60.10
80367;DHT22;70058;42.660;23.366;2024-03-25T03:24:22;7.50;60.90
80367;DHT22;70058;42.660;23.366;2024-03-25T03:26:48;7.60;61.00
80367;DHT22;70058;42.660;23.366;2024-03-25T03:29:14;7.40;61.30
80367;DHT22;70058;42.660;23.366;2024-03-25T03:31:39;7.50;61.00
80367;DHT22;70058;42.660;23.366;2024-03-25T03:34:05;7.50;60.70
80367;DHT22;70058;42.660;23.366;2024-03-25T03:36:31;7.60;61.10
80367;DHT22;70058;42.660;23.366;2024-03-25T03:38:56;7.50;60.30
80367;DHT22;70058;42.660;23.366;2024-03-25T03:41:22;7.50;60.50
80367;DHT22;70058;42.660;23.366;2024-03-25T03:43:47;7.60;60.50
80367;DHT22;70058;42.660;23.366;2024-03-25T03:46:13;7.60;60.00
80367;DHT22;70058;42.660;23.366;2024-03-25T03:48:39;7.60;59.90
80367;DHT22;70058;42.660;23.366;2024-03-25T03:51:05;7.60;60.00
80367;DHT22;70058;42.660;23.366;2024-03-25T03:53:32;7.70;60.10
80367;DHT22;70058;42.660;23.366;2024-03-25T03:55:59;7.50;59.90
80367;DHT22;70058;42.660;23.366;2024-03-25T03:58:27;7.80;59.80
80367;DHT22;70058;42.660;23.366;2024-03-25T04:00:53;7.80;59.60
80367;DHT22;70058;42.660;23.366;2024-03-25T04:03:18;7.80;59.30
80367;DHT22;70058;42.660;23.366;2024-03-25T04:05:44;7.70;58.80
80367;DHT22;70058;42.660;23.366;2024-03-25T04:08:10;7.90;58.70
80367;DHT22;70058;42.660;23.366;2024-03-25T04:10:37;7.70;58.80
80367;DHT22;70058;42.660;23.366;2024-03-25T04:13:06;7.60;58.70
80367;DHT22;70058;42.660;23.366;2024-03-25T04:15:38;7.70;58.90
80367;DHT22;70058;42.660;23.366;2024-03-25T04:18:16;7.90;58.50
80367;DHT22;70058;42.660;23.366;2024-03-25T04:20:42;7.90;57.80
80367;DHT22;70058;42.660;23.366;2024-03-25T04:23:08;7.90;57.60
80367;DHT22;70058;42.660;23.366;2024-03-25T04:25:34;7.90;58.10
80367;DHT22;70058;42.660;23.366;2024-03-25T04:28:00;8.00;58.40
80367;DHT22;70058;42.660;23.366;2024-03-25T04:30:26;8.00;58.00
80367;DHT22;70058;42.660;23.366;2024-03-25T04:32:52;7.90;57.60
80367;DHT22;70058;42.660;23.366;2024-03-25T04:35:17;7.70;58.40
80367;DHT22;70058;42.660;23.366;2024-03-25T04:37:43;7.80;57.50
80367;DHT22;70058;42.660;23.366;2024-03-25T04:40:09;7.80;57.50
80367;DHT22;70058;42.660;23.366;2024-03-25T04:42:35;7.90;57.90
80367;DHT22;70058;42.660;23.366;2024-03-25T04:45:02;8.00;57.90
80367;DHT22;70058;42.660;23.366;2024-03-25T04:47:27;8.00;57.50
80367;DHT22;70058;42.660;23.366;2024-03-25T04:49:53;8.00;58.10
80367;DHT22;70058;42.660;23.366;2024-03-25T04:52:18;8.20;57.60
80367;DHT22;70058;42.660;23.366;2024-03-25T04:54:48;8.20;57.20
80367;DHT22;70058;42.660;23.366;2024-03-25T04:57:14;8.30;57.40
80367;DHT22;70058;42.660;23.366;2024-03-25T04:59:40;8.30;56.60
80367;DHT22;70058;42.660;23.366;2024-03-25T05:02:06;8.20;56.70
80367;DHT22;70058;42.660;23.366;2024-03-25T05:04:31;8.10;56.60
80367;DHT22;70058;42.660;23.366;2024-03-25T05:06:57;8.20;56.70
80367;DHT22;70058;42.660;23.366;2024-03-25T05:09:23;8.30;56.70
80367;DHT22;70058;42.660;23.366;2024-03-25T05:11:49;8.40;56.30
80367;DHT22;70058;42.660;23.366;2024-03-25T05:14:15;8.50;56.40
80367;DHT22;70058;42.660;23.366;2024-03-25T05:16:40;8.50;55.80
80367;DHT22;70058;42.660;23.366;2024-03-25T05:19:06;8.60;55.90
80367;DHT22;70058;42.660;23.366;2024-03-25T05:21:32;8.80;55.00
80367;DHT22;70058;42.660;23.366;2024-03-25T05:23:58;8.50;55.50
80367;DHT22;70058;42.660;23.366;2024-03-25T05:26:24;8.70;54.90
80367;DHT22;70058;42.660;23.366;2024-03-25T05:28:56;8.90;53.50
80367;DHT22;70058;42.660;23.366;2024-03-25T05:31:22;8.90;53.00
80367;DHT22;70058;42.660;23.366;2024-03-25T05:33:48;9.00;53.30
80367;DHT22;70058;42.660;23.366;2024-03-25T05:36:14;8.90;53.20
80367;DHT22;70058;42.660;23.366;2024-03-25T05:38:40;8.60;53.80
80367;DHT22;70058;42.660;23.366;2024-03-25T05:41:07;8.70;53.60
80367;DHT22;70058;42.660;23.366;2024-03-25T05:43:33;8.70;53.70
80367;DHT22;70058;42.660;23.366;2024-03-25T05:46:02;8.70;53.70
80367;DHT22;70058;42.660;23.366;2024-03-25T05:48:28;8.90;53.10
80367;DHT22;70058;42.660;23.366;2024-03-25T05:51:06;9.20;53.10
80367;DHT22;70058;42.660;23.366;2024-03-25T05:53:35;9.40;51.10
80367;DHT22;70058;42.660;23.366;2024-03-25T05:56:03;9.90;51.30
80367;DHT22;70058;42.660;23.366;2024-03-25T05:58:29;10.80;49.70
80367;DHT22;70058;42.660;23.366;2024-03-25T06:00:54;11.40;47.10
80367;DHT22;70058;42.660;23.366;2024-03-25T06:03:22;11.90;44.90
80367;DHT22;70058;42.660;23.366;2024-03-25T06:05:48;12.20;44.40
80367;DHT22;70058;42.660;23.366;2024-03-25T06:08:15;12.00;44.10
80367;DHT22;70058;42.660;23.366;2024-03-25T06:10:50;11.50;44.80
80367;DHT22;70058;42.660;23.366;2024-03-25T06:13:16;11.50;45.40
80367;DHT22;70058;42.660;23.366;2024-03-25T06:15:42;11.80;44.60
80367;DHT22;70058;42.660;23.366;2024-03-25T06:18:09;11.90;44.60
80367;DHT22;70058;42.660;23.366;2024-03-25T06:20:38;11.90;44.60
80367;DHT22;70058;42.660;23.366;2024-03-25T06:23:04;11.60;44.50
80367;DHT22;70058;42.660;23.366;2024-03-25T06:25:30;12.20;44.00
80367;DHT22;70058;42.660;23.366;2024-03-25T06:27:56;12.40;43.10
80367;DHT22;70058;42.660;23.366;2024-03-25T06:30:22;13.20;42.20
80367;DHT22;70058;42.660;23.366;2024-03-25T06:33:06;14.20;39.60
80367;DHT22;70058;42.660;23.366;2024-03-25T06:35:51;14.90;38.20
80367;DHT22;70058;42.660;23.366;2024-03-25T06:38:17;15.20;37.10
80367;DHT22;70058;42.660;23.366;2024-03-25T06:40:45;15.10;36.60
80367;DHT22;70058;42.660;23.366;2024-03-25T06:43:13;14.40;37.60
80367;DHT22;70058;42.660;23.366;2024-03-25T06:45:41;13.60;39.20
80367;DHT22;70058;42.660;23.366;2024-03-25T06:48:07;13.80;39.40
80367;DHT22;70058;42.660;23.366;2024-03-25T06:50:36;16.00;35.80
80367;DHT22;70058;42.660;23.366;2024-03-25T06:53:02;17.50;34.00
80367;DHT22;70058;42.660;23.366;2024-03-25T06:55:28;18.60;31.90
80367;DHT22;70058;42.660;23.366;2024-03-25T06:57:54;19.80;29.30
80367;DHT22;70058;42.660;23.366;2024-03-25T07:00:20;21.60;27.70
80367;DHT22;70058;42.660;23.366;2024-03-25T07:02:50;23.60;25.80
80367;DHT22;70058;42.660;23.366;2024-03-25T07:05:16;24.70;24.10
80367;DHT22;70058;42.660;23.366;2024-03-25T07:07:42;25.30;23.30
80367;DHT22;70058;42.660;23.366;2024-03-25T07:10:08;25.50;22.80
80367;DHT22;70058;42.660;23.366;2024-03-25T07:12:34;25.30;22.90
80367;DHT22;70058;42.660;23.366;2024-03-25T07:15:00;25.80;22.20
80367;DHT22;70058;42.660;23.366;2024-03-25T07:17:26;25.20;22.80
80367;DHT22;70058;42.660;23.366;2024-03-25T07:19:52;25.70;22.50
80367;DHT22;70058;42.660;23.366;2024-03-25T07:22:18;26.00;21.60
80367;DHT22;70058;42.660;23.366;2024-03-25T07:24:45;26.10;21.40
80367;DHT22;70058;42.660;23.366;2024-03-25T07:27:10;25.60;22.00
80367;DHT22;70058;42.660;23.366;2024-03-25T07:29:36;25.00;21.80
80367;DHT22;70058;42.660;23.366;2024-03-25T07:32:02;24.60;22.70
80367;DHT22;70058;42.660;23.366;2024-03-25T07:34:28;24.90;22.20
80367;DHT22;70058;42.660;23.366;2024-03-25T07:36:54;25.70;21.40
80367;DHT22;70058;42.660;23.366;2024-03-25T07:39:19;26.10;20.90
80367;DHT22;70058;42.660;23.366;2024-03-25T07:41:49;26.20;20.90
80367;DHT22;70058;42.660;23.366;2024-03-25T07:44:15;27.00;20.50
80367;DHT22;70058;42.660;23.366;2024-03-25T07:46:41;28.10;20.50
80367;DHT22;70058;42.660;23.366;2024-03-25T07:49:07;28.10;19.10
80367;DHT22;70058;42.660;23.366;2024-03-25T07:51:33;28.20;19.60
80367;DHT22;70058;42.660;23.366;2024-03-25T07:54:03;29.10;18.90
80367;DHT22;70058;42.660;23.366;2024-03-25T07:56:29;29.40;18.50
80367;DHT22;70058;42.660;23.366;2024-03-25T07:58:58;29.60;18.70
80367;DHT22;70058;42.660;23.366;2024-03-25T08:01:25;29.90;18.20
80367;DHT22;70058;42.660;23.366;2024-03-25T08:03:50;30.50;18.20
80367;DHT22;70058;42.660;23.366;2024-03-25T08:06:16;30.70;17.60
80367;DHT22;70058;42.660;23.366;2024-03-25T08:08:42;30.80;17.20
80367;DHT22;70058;42.660;23.366;2024-03-25T08:11:09;29.60;18.00
80367;DHT22;70058;42.660;23.366;2024-03-25T08:13:35;29.80;18.00
80367;DHT22;70058;42.660;23.366;2024-03-25T08:16:01;29.10;17.80
80367;DHT22;70058;42.660;23.366;2024-03-25T08:18:29;28.10;18.40
80367;DHT22;70058;42.660;23.366;2024-03-25T08:21:26;28.30;18.00
80367;DHT22;70058;42.660;23.366;2024-03-25T08:23:52;29.20;18.50
80367;DHT22;70058;42.660;23.366;2024-03-25T08:26:18;29.80;17.70
80367;DHT22;70058;42.660;23.366;2024-03-25T08:28:43;30.10;17.70
80367;DHT22;70058;42.660;23.366;2024-03-25T08:31:09;30.10;17.50
80367;DHT22;70058;42.660;23.366;2024-03-25T08:33:35;31.30;17.10
80367;DHT22;70058;42.660;23.366;2024-03-25T08:36:00;32.60;16.50
80367;DHT22;70058;42.660;23.366;2024-03-25T08:38:26;32.20;16.40
80367;DHT22;70058;42.660;23.366;2024-03-25T08:40:52;31.70;17.10
80367;DHT22;70058;42.660;23.366;2024-03-25T08:43:18;32.40;16.30
80367;DHT22;70058;42.660;23.366;2024-03-25T08:45:44;30.70;16.60
80367;DHT22;70058;42.660;23.366;2024-03-25T08:48:11;29.90;17.30
80367;DHT22;70058;42.660;23.366;2024-03-25T08:50:37;28.80;17.60
80367;DHT22;70058;42.660;23.366;2024-03-25T08:53:04;27.30;18.60
80367;DHT22;70058;42.660;23.366;2024-03-25T08:55:30;26.40;19.60
80367;DHT22;70058;42.660;23.366;2024-03-25T08:57:57;26.80;19.10
80367;DHT22;70058;42.660;23.366;2024-03-25T09:00:26;26.50;18.90
80367;DHT22;70058;42.660;23.366;2024-03-25T09:02:53;25.70;19.70
80367;DHT22;70058;42.660;23.366;2024-03-25T09:05:20;23.80;20.90
80367;DHT22;70058;42.660;23.366;2024-03-25T09:07:45;22.70;22.40
80367;DHT22;70058;42.660;23.366;2024-03-25T09:10:15;21.40;23.30
80367;DHT22;70058;42.660;23.366;2024-03-25T09:13:00;20.50;24.50
80367;DHT22;70058;42.660;23.366;2024-03-25T09:15:25;19.10;25.50
80367;DHT22;70058;42.660;23.366;2024-03-25T09:17:51;18.20;26.90
80367;DHT22;70058;42.660;23.366;2024-03-25T09:20:16;18.10;27.80
80367;DHT22;70058;42.660;23.366;2024-03-25T09:22:46;18.00;27.70
80367;DHT22;70058;42.660;23.366;2024-03-25T09:25:14;17.90;27.90
80367;DHT22;70058;42.660;23.366;2024-03-25T09:27:40;18.20;27.80
80367;DHT22;70058;42.660;23.366;2024-03-25T09:30:06;17.60;27.30
80367;DHT22;70058;42.660;23.366;2024-03-25T09:32:34;17.40;28.60
80367;DHT22;70058;42.660;23.366;2024-03-25T09:35:00;18.10;28.40
80367;DHT22;70058;42.660;23.366;2024-03-25T09:37:26;18.60;27.30
80367;DHT22;70058;42.660;23.366;2024-03-25T09:39:52;18.30;27.90
80367;DHT22;70058;42.660;23.366;2024-03-25T09:42:26;18.30;27.80
80367;DHT22;70058;42.660;23.366;2024-03-25T09:44:55;18.10;27.90
80367;DHT22;70058;42.660;23.366;2024-03-25T09:47:22;18.30;28.20
80367;DHT22;70058;42.660;23.366;2024-03-25T09:49:49;18.00;28.20
80367;DHT22;70058;42.660;23.366;2024-03-25T09:52:17;18.10;28.30
80367;DHT22;70058;42.660;23.366;2024-03-25T09:54:44;17.90;28.00
80367;DHT22;70058;42.660;23.366;2024-03-25T09:57:10;19.40;26.60
80367;DHT22;70058;42.660;23.366;2024-03-25T09:59:37;20.50;25.50
80367;DHT22;70058;42.660;23.366;2024-03-25T10:02:03;21.10;24.70
80367;DHT22;70058;42.660;23.366;2024-03-25T10:04:29;20.90;24.60
80367;DHT22;70058;42.660;23.366;2024-03-25T10:06:55;20.10;24.70
80367;DHT22;70058;42.660;23.366;2024-03-25T10:09:21;19.30;25.50
80367;DHT22;70058;42.660;23.366;2024-03-25T10:11:50;18.40;26.70
80367;DHT22;70058;42.660;23.366;2024-03-25T10:14:17;17.70;27.20
80367;DHT22;70058;42.660;23.366;2024-03-25T10:16:43;17.20;28.20
80367;DHT22;70058;42.660;23.366;2024-03-25T10:19:09;17.40;28.10
80367;DHT22;70058;42.660;23.366;2024-03-25T10:21:36;17.70;27.90
80367;DHT22;70058;42.660;23.366;2024-03-25T10:24:04;18.20;26.90
80367;DHT22;70058;42.660;23.366;2024-03-25T10:26:34;18.20;27.70
80367;DHT22;70058;42.660;23.366;2024-03-25T10:29:07;18.10;27.30
80367;DHT22;70058;42.660;23.366;2024-03-25T10:31:33;17.80;27.20
80367;DHT22;70058;42.660;23.366;2024-03-25T10:33:59;17.80;27.60
80367;DHT22;70058;42.660;23.366;2024-03-25T10:36:26;17.90;27.20
80367;DHT22;70058;42.660;23.366;2024-03-25T10:39:02;17.60;27.60
80367;DHT22;70058;42.660;23.366;2024-03-25T10:41:28;18.00;27.40
80367;DHT22;70058;42.660;23.366;2024-03-25T10:43:55;18.20;26.90
80367;DHT22;70058;42.660;23.366;2024-03-25T10:46:23;18.10;26.70
80367;DHT22;70058;42.660;23.366;2024-03-25T10:49:05;18.20;26.40
80367;DHT22;70058;42.660;23.366;2024-03-25T10:51:33;17.80;26.10
80367;DHT22;70058;42.660;23.366;2024-03-25T10:54:01;17.70;26.70
80367;DHT22;70058;42.660;23.366;2024-03-25T10:56:27;18.00;27.00
80367;DHT22;70058;42.660;23.366;2024-03-25T10:58:54;17.60;26.90
80367;DHT22;70058;42.660;23.366;2024-03-25T11:01:22;17.40;27.20
80367;DHT22;70058;42.660;23.366;2024-03-25T11:03:48;16.90;27.10
80367;DHT22;70058;42.660;23.366;2024-03-25T11:06:15;16.60;27.20
80367;DHT22;70058;42.660;23.366;2024-03-25T11:08:42;16.00;28.10
80367;DHT22;70058;42.660;23.366;2024-03-25T11:11:13;15.60;28.70
80367;DHT22;70058;42.660;23.366;2024-03-25T11:13:41;15.10;29.90
80367;DHT22;70058;42.660;23.366;2024-03-25T11:16:07;15.10;30.40
80367;DHT22;70058;42.660;23.366;2024-03-25T11:18:37;14.70;30.50
80367;DHT22;70058;42.660;23.366;2024-03-25T11:21:09;14.40;31.50
80367;DHT22;70058;42.660;23.366;2024-03-25T11:23:44;13.90;32.90
80367;DHT22;70058;42.660;23.366;2024-03-25T11:26:22;13.70;33.80
80367;DHT22;70058;42.660;23.366;2024-03-25T11:28:49;13.30;34.90
80367;DHT22;70058;42.660;23.366;2024-03-25T11:31:16;13.00;36.70
80367;DHT22;70058;42.660;23.366;2024-03-25T11:33:45;12.90;36.70
80367;DHT22;70058;42.660;23.366;2024-03-25T11:36:11;12.90;36.60
80367;DHT22;70058;42.660;23.366;2024-03-25T11:38:37;12.80;37.30
80367;DHT22;70058;42.660;23.366;2024-03-25T11:41:06;12.80;36.60
80367;DHT22;70058;42.660;23.366;2024-03-25T11:43:33;12.70;37.20
80367;DHT22;70058;42.660;23.366;2024-03-25T11:45:58;12.70;37.40
80367;DHT22;70058;42.660;23.366;2024-03-25T11:48:24;12.50;37.80
80367;DHT22;70058;42.660;23.366;2024-03-25T11:50:50;12.60;38.10
80367;DHT22;70058;42.660;23.366;2024-03-25T11:53:16;13.10;37.80
80367;DHT22;70058;42.660;23.366;2024-03-25T11:55:46;13.00;37.10
80367;DHT22;70058;42.660;23.366;2024-03-25T11:58:13;13.40;36.40
80367;DHT22;70058;42.660;23.366;2024-03-25T12:00:47;13.60;35.90
80367;DHT22;70058;42.660;23.366;2024-03-25T12:03:17;13.30;35.10
80367;DHT22;70058;42.660;23.366;2024-03-25T12:05:45;13.60;35.90
80367;DHT22;70058;42.660;23.366;2024-03-25T12:08:11;13.40;34.50
80367;DHT22;70058;42.660;23.366;2024-03-25T12:10:39;13.10;34.90
80367;DHT22;70058;42.660;23.366;2024-03-25T12:13:25;13.40;35.20
80367;DHT22;70058;42.660;23.366;2024-03-25T12:15:51;13.30;35.10
80367;DHT22;70058;42.660;23.366;2024-03-25T12:18:18;13.20;35.60
80367;DHT22;70058;42.660;23.366;2024-03-25T12:20:47;13.00;35.90
80367;DHT22;70058;42.660;23.366;2024-03-25T12:23:13;13.20;36.10
80367;DHT22;70058;42.660;23.366;2024-03-25T12:25:39;13.00;36.50
80367;DHT22;70058;42.660;23.366;2024-03-25T12:28:09;12.80;36.00
80367;DHT22;70058;42.660;23.366;2024-03-25T12:30:52;12.90;36.40
80367;DHT22;70058;42.660;23.366;2024-03-25T12:33:18;12.80;36.70
80367;DHT22;70058;42.660;23.366;2024-03-25T12:35:51;12.80;36.70
80367;DHT22;70058;42.660;23.366;2024-03-25T12:38:27;13.10;36.60
80367;DHT22;70058;42.660;23.366;2024-03-25T12:40:54;13.60;35.50
80367;DHT22;70058;42.660;23.366;2024-03-25T12:43:20;13.90;34.30
80367;DHT22;70058;42.660;23.366;2024-03-25T12:45:45;13.70;33.60
80367;DHT22;70058;42.660;23.366;2024-03-25T12:48:11;13.60;33.30
80367;DHT22;70058;42.660;23.366;2024-03-25T12:50:37;13.90;33.60
80367;DHT22;70058;42.660;23.366;2024-03-25T12:53:04;14.10;32.60
80367;DHT22;70058;42.660;23.366;2024-03-25T12:55:30;13.90;32.20
80367;DHT22;70058;42.660;23.366;2024-03-25T12:57:55;14.00;31.70
80367;DHT22;70058;42.660;23.366;2024-03-25T13:00:21;13.90;32.30
80367;DHT22;70058;42.660;23.366;2024-03-25T13:02:48;13.50;33.90
80367;DHT22;70058;42.660;23.366;2024-03-25T13:05:13;13.10;33.40
80367;DHT22;70058;42.660;23.366;2024-03-25T13:07:39;12.90;33.60
80367;DHT22;70058;42.660;23.366;2024-03-25T13:10:05;13.00;34.00
80367;DHT22;70058;42.660;23.366;2024-03-25T13:12:31;12.90;34.70
80367;DHT22;70058;42.660;23.366;2024-03-25T13:14:57;12.90;34.50
80367;DHT22;70058;42.660;23.366;2024-03-25T13:17:25;12.80;34.60
80367;DHT22;70058;42.660;23.366;2024-03-25T13:19:50;12.60;35.30
80367;DHT22;70058;42.660;23.366;2024-03-25T13:22:16;12.70;35.40
80367;DHT22;70058;42.660;23.366;2024-03-25T13:24:42;12.80;35.80
80367;DHT22;70058;42.660;23.366;2024-03-25T13:27:07;12.80;35.00
80367;DHT22;70058;42.660;23.366;2024-03-25T13:29:33;12.70;35.20
80367;DHT22;70058;42.660;23.366;2024-03-25T13:32:02;12.70;35.90
80367;DHT22;70058;42.660;23.366;2024-03-25T13:34:27;12.90;35.40
80367;DHT22;70058;42.660;23.366;2024-03-25T13:36:53;13.20;34.60
80367;DHT22;70058;42.660;23.366;2024-03-25T13:39:19;13.30;32.40
80367;DHT22;70058;42.660;23.366;2024-03-25T13:41:44;13.30;32.60
80367;DHT22;70058;42.660;23.366;2024-03-25T13:44:11;13.40;32.90
80367;DHT22;70058;42.660;23.366;2024-03-25T13:46:37;13.50;32.20
80367;DHT22;70058;42.660;23.366;2024-03-25T13:49:03;13.50;32.20
80367;DHT22;70058;42.660;23.366;2024-03-25T13:51:28;13.60;31.70
80367;DHT22;70058;42.660;23.366;2024-03-25T13:53:54;13.70;31.50
80367;DHT22;70058;42.660;23.366;2024-03-25T13:56:20;14.00;30.80
80367;DHT22;70058;42.660;23.366;2024-03-25T13:58:45;13.90;31.60
80367;DHT22;70058;42.660;23.366;2024-03-25T14:01:11;13.30;33.20
80367;DHT22;70058;42.660;23.366;2024-03-25T14:03:37;12.90;35.40
80367;DHT22;70058;42.660;23.366;2024-03-25T14:06:04;12.40;36.30
80367;DHT22;70058;42.660;23.366;2024-03-25T14:08:30;12.10;37.60
80367;DHT22;70058;42.660;23.366;2024-03-25T14:10:59;12.00;38.60
80367;DHT22;70058;42.660;23.366;2024-03-25T14:13:25;11.90;39.00
80367;DHT22;70058;42.660;23.366;2024-03-25T14:15:51;11.60;39.60
80367;DHT22;70058;42.660;23.366;2024-03-25T14:18:18;11.70;38.50
80367;DHT22;70058;42.660;23.366;2024-03-25T14:20:44;11.50;38.10
80367;DHT22;70058;42.660;23.366;2024-03-25T14:23:10;11.60;38.50
80367;DHT22;70058;42.660;23.366;2024-03-25T14:25:37;11.90;38.40
80367;DHT22;70058;42.660;23.366;2024-03-25T14:28:03;12.00;37.50
80367;DHT22;70058;42.660;23.366;2024-03-25T14:30:29;12.10;38.80
80367;DHT22;70058;42.660;23.366;2024-03-25T14:32:54;12.30;38.20
80367;DHT22;70058;42.660;23.366;2024-03-25T14:35:21;12.70;36.20
80367;DHT22;70058;42.660;23.366;2024-03-25T14:37:47;13.10;34.00
80367;DHT22;70058;42.660;23.366;2024-03-25T14:40:14;13.30;34.10
80367;DHT22;70058;42.660;23.366;2024-03-25T14:42:41;13.40;33.00
80367;DHT22;70058;42.660;23.366;2024-03-25T14:45:07;13.40;33.20
80367;DHT22;70058;42.660;23.366;2024-03-25T14:47:32;13.00;32.80
80367;DHT22;70058;42.660;23.366;2024-03-25T14:49:58;12.60;34.20
80367;DHT22;70058;42.660;23.366;2024-03-25T14:52:27;12.30;34.80
80367;DHT22;70058;42.660;23.366;2024-03-25T14:54:53;12.20;35.30
80367;DHT22;70058;42.660;23.366;2024-03-25T14:57:18;12.00;35.20
80367;DHT22;70058;42.660;23.366;2024-03-25T14:59:44;12.10;35.10
80367;DHT22;70058;42.660;23.366;2024-03-25T15:02:12;12.20;35.10
80367;DHT22;70058;42.660;23.366;2024-03-25T15:04:39;11.80;35.40
80367;DHT22;70058;42.660;23.366;2024-03-25T15:07:10;11.80;35.80
80367;DHT22;70058;42.660;23.366;2024-03-25T15:09:36;12.00;36.10
80367;DHT22;70058;42.660;23.366;2024-03-25T15:12:01;12.20;36.00
80367;DHT22;70058;42.660;23.366;2024-03-25T15:14:28;11.90;37.70
80367;DHT22;70058;42.660;23.366;2024-03-25T15:16:57;11.70;38.80
80367;DHT22;70058;42.660;23.366;2024-03-25T15:19:24;11.20;40.30
80367;DHT22;70058;42.660;23.366;2024-03-25T15:21:50;10.90;41.30